Time;durP1;ratioP1;P1;durP2;ratioP2;P2;SDS_P1;SDS_P2;PMS_P1;PMS_P2;Temp;Humidity;BMP_temperature;BMP_pressure;BME280_temperature;BME280_humidity;BME280_pressure;Samples;Min_cycle;Max_cycle;Signal;HPM_P1;HPM_P2
2021/12/20 00:00:54;;;;;;;7.68;6.12;;;4.50;99.90;;;;;;469430;252;27946;-76
2021/12/20 00:02:55;;;;;;;7.72;5.93;;;4.50;99.90;;;;;;475163;250;27875;-76
2021/12/20 00:04:56;;;;;;;8.40;5.82;;;4.50;99.90;;;;;;469473;252;27463;-76
2021/12/20 00:06:57;;;;;;;7.53;5.28;;;4.40;99.90;;;;;;475181;250;27453;-77
2021/12/20 00:08:59;;;;;;;7.47;5.95;;;4.40;99.90;;;;;;469461;253;27495;-77
2021/12/20 00:11:00;;;;;;;7.65;5.43;;;4.40;99.90;;;;;;475151;250;27437;-76
2021/12/20 00:13:01;;;;;;;8.35;6.00;;;4.40;99.90;;;;;;469465;252;27431;-76
2021/12/20 00:15:02;;;;;;;7.78;5.87;;;4.40;99.90;;;;;;475161;250;27432;-77
2021/12/20 00:17:04;;;;;;;5.65;4.82;;;4.40;99.90;;;;;;469431;252;27789;-76
2021/12/20 00:19:09;;;;;;;7.20;5.65;;;4.40;99.90;;;;;;475146;250;27476;-76
2021/12/20 00:21:06;;;;;;;6.68;5.25;;;4.40;99.90;;;;;;469206;253;27938;-76
2021/12/20 00:23:08;;;;;;;6.35;5.15;;;4.40;99.90;;;;;;475108;250;28054;-76
2021/12/20 00:25:09;;;;;;;7.07;5.28;;;4.40;99.90;;;;;;469458;252;27968;-76
2021/12/20 00:27:12;;;;;;;5.82;5.00;;;4.30;99.90;;;;;;475130;250;28039;-76
2021/12/20 00:29:11;;;;;;;8.48;6.07;;;4.30;99.90;;;;;;469352;253;27428;-76
2021/12/20 00:31:12;;;;;;;6.10;5.18;;;4.40;99.90;;;;;;475129;250;27441;-76
2021/12/20 00:33:14;;;;;;;8.23;5.85;;;4.40;99.90;;;;;;469447;252;27415;-76
2021/12/20 00:35:18;;;;;;;8.13;5.65;;;4.40;99.90;;;;;;475113;250;27822;-76
2021/12/20 00:41:55;;;;;;;8.88;5.40;;;4.40;99.90;;;;;;469384;253;27954;-76
2021/12/20 00:43:57;;;;;;;7.82;5.70;;;4.40;99.90;;;;;;475129;250;27923;-77
2021/12/20 00:45:58;;;;;;;9.18;5.75;;;4.40;99.90;;;;;;469423;252;27970;-76
2021/12/20 00:47:59;;;;;;;7.18;5.30;;;4.40;99.90;;;;;;475117;250;27887;-77
2021/12/20 00:50:00;;;;;;;6.25;5.50;;;4.40;99.90;;;;;;469419;252;27423;-76
2021/12/20 00:52:01;;;;;;;5.30;4.70;;;4.40;99.90;;;;;;475144;250;27441;-76
2021/12/20 00:54:03;;;;;;;8.10;5.25;;;4.30;99.90;;;;;;469444;252;27479;-75
2021/12/20 00:56:04;;;;;;;6.60;5.22;;;4.30;99.90;;;;;;475125;250;27468;-76
2021/12/20 00:58:05;;;;;;;8.27;6.28;;;4.30;99.90;;;;;;469433;252;27467;-76
2021/12/20 01:00:06;;;;;;;6.10;4.90;;;4.30;99.90;;;;;;475084;250;27416;-76
2021/12/20 01:02:08;;;;;;;6.55;5.10;;;4.30;99.90;;;;;;469395;252;27598;-76
2021/12/20 01:04:09;;;;;;;7.65;5.87;;;4.30;99.90;;;;;;475155;250;27463;-75
2021/12/20 01:06:10;;;;;;;6.10;4.95;;;4.30;99.90;;;;;;469413;252;27503;-76
2021/12/20 01:08:11;;;;;;;6.53;5.12;;;4.30;99.90;;;;;;475128;250;27966;-76
2021/12/20 01:10:13;;;;;;;6.68;5.28;;;4.30;99.90;;;;;;469411;252;27987;-75
2021/12/20 01:12:20;;;;;;;7.37;5.80;;;4.30;99.90;;;;;;475138;250;27922;-76
2021/12/20 01:14:27;;;;;;;7.93;5.60;;;4.30;99.90;;;;;;469291;253;27466;-77
2021/12/20 01:16:31;;;;;;;7.62;5.80;;;4.30;99.90;;;;;;474994;250;27448;-76
2021/12/20 01:18:27;;;;;;;7.35;5.28;;;4.30;99.90;;;;;;469064;253;27427;-76
2021/12/20 01:20:28;;;;;;;7.50;5.45;;;4.30;99.90;;;;;;475129;250;27527;-76
2021/12/20 01:22:29;;;;;;;8.25;6.43;;;4.30;99.90;;;;;;469442;252;28098;-77
2021/12/20 01:24:30;;;;;;;8.35;6.28;;;4.30;99.90;;;;;;475117;250;28024;-76
2021/12/20 01:26:32;;;;;;;7.25;5.03;;;4.30;99.90;;;;;;469428;253;29078;-76
2021/12/20 01:28:33;;;;;;;8.15;5.95;;;4.20;99.90;;;;;;475130;250;27405;-76
2021/12/20 01:30:34;;;;;;;7.95;5.80;;;4.20;99.90;;;;;;469448;253;27459;-76
2021/12/20 01:32:35;;;;;;;7.93;4.93;;;4.20;99.90;;;;;;475166;250;27440;-76
2021/12/20 01:34:37;;;;;;;7.57;5.28;;;4.20;99.90;;;;;;469434;252;27436;-76
2021/12/20 01:36:38;;;;;;;6.03;4.90;;;4.20;99.90;;;;;;475145;250;27456;-76
2021/12/20 01:38:39;;;;;;;8.00;5.87;;;4.20;99.90;;;;;;469404;252;27508;-76
2021/12/20 01:40:40;;;;;;;8.10;6.50;;;4.20;99.90;;;;;;475121;250;27444;-76
2021/12/20 01:42:42;;;;;;;8.60;6.12;;;4.20;99.90;;;;;;469422;252;27448;-75
2021/12/20 01:44:43;;;;;;;7.12;5.28;;;4.20;99.90;;;;;;475154;250;27420;-76
2021/12/20 01:46:44;;;;;;;8.57;5.62;;;4.20;99.90;;;;;;469454;252;27995;-76
2021/12/20 01:48:46;;;;;;;8.98;5.87;;;4.20;99.90;;;;;;475170;250;27857;-76
2021/12/20 01:51:02;;;;;;;7.57;5.60;;;4.20;99.90;;;;;;469430;252;28057;-76
2021/12/20 01:52:48;;;;;;;8.43;6.20;;;4.20;99.90;;;;;;474034;250;27435;-76
2021/12/20 01:54:49;;;;;;;8.93;6.32;;;4.20;99.90;;;;;;469454;253;27525;-76
2021/12/20 01:56:51;;;;;;;7.32;5.55;;;4.20;99.90;;;;;;475154;250;27420;-76
2021/12/20 01:58:52;;;;;;;8.23;5.90;;;4.20;99.90;;;;;;469454;252;27415;-76
2021/12/20 02:01:18;;;;;;;7.85;5.70;;;4.20;99.90;;;;;;475143;250;27503;-76
2021/12/20 02:03:03;;;;;;;7.90;5.97;;;4.20;99.90;;;;;;468428;253;27973;-76
2021/12/20 02:05:15;;;;;;;8.48;5.80;;;4.20;99.90;;;;;;475154;250;27460;-76
2021/12/20 02:07:06;;;;;;;9.95;5.87;;;4.30;99.90;;;;;;468770;253;27428;-76
2021/12/20 02:09:07;;;;;;;6.97;5.32;;;4.20;99.90;;;;;;475109;250;27444;-76
2021/12/20 02:11:12;;;;;;;7.30;5.70;;;4.20;99.90;;;;;;469450;252;27456;-76
2021/12/20 02:13:10;;;;;;;7.35;5.22;;;4.20;99.90;;;;;;475055;250;27393;-77
2021/12/20 02:15:11;;;;;;;6.55;5.22;;;4.20;99.90;;;;;;469449;252;27589;-75
2021/12/20 02:17:14;;;;;;;7.28;5.30;;;4.20;99.90;;;;;;475130;250;27489;-76
2021/12/20 02:19:13;;;;;;;7.70;5.78;;;4.20;99.90;;;;;;469361;253;27562;-76
2021/12/20 02:21:15;;;;;;;6.70;5.22;;;4.20;99.90;;;;;;475140;250;27399;-76
2021/12/20 02:23:16;;;;;;;6.53;5.47;;;4.20;99.90;;;;;;469404;252;27542;-78
2021/12/20 02:25:17;;;;;;;7.82;5.18;;;4.20;99.90;;;;;;475143;250;27924;-76
2021/12/20 02:27:20;;;;;;;7.95;5.30;;;4.20;99.90;;;;;;469425;252;27969;-76
2021/12/20 02:29:27;;;;;;;6.00;4.97;;;4.20;99.90;;;;;;475046;250;28012;-76
2021/12/20 02:38:01;;;;;;;7.03;5.25;;;4.20;99.90;;;;;;475129;250;27849;-76
2021/12/20 02:40:03;;;;;;;7.07;5.80;;;4.20;99.90;;;;;;469413;252;27502;-76
2021/12/20 02:42:04;;;;;;;7.90;5.53;;;4.20;99.90;;;;;;475109;250;27544;-76
2021/12/20 02:44:06;;;;;;;7.50;5.45;;;4.20;99.90;;;;;;469456;252;27431;-76
2021/12/20 02:46:11;;;;;;;7.50;5.25;;;4.20;99.90;;;;;;475096;250;27584;-76
2021/12/20 02:48:07;;;;;;;6.18;4.97;;;4.20;99.90;;;;;;469041;253;27499;-76
2021/12/20 02:50:09;;;;;;;7.28;5.37;;;4.20;99.90;;;;;;475139;250;27445;-76
2021/12/20 02:52:10;;;;;;;6.65;5.15;;;4.20;99.90;;;;;;469439;252;27911;-76
2021/12/20 02:54:11;;;;;;;7.28;5.00;;;4.20;99.90;;;;;;475123;250;27413;-76
2021/12/20 02:56:12;;;;;;;7.97;5.60;;;4.20;99.90;;;;;;469427;252;27573;-77
2021/12/20 02:58:14;;;;;;;8.27;5.37;;;4.20;99.90;;;;;;475132;250;27408;-76
2021/12/20 03:00:15;;;;;;;6.72;5.40;;;4.20;99.90;;;;;;469413;252;27923;-76
2021/12/20 03:02:18;;;;;;;7.03;5.15;;;4.20;99.90;;;;;;475118;250;28082;-76
2021/12/20 03:04:17;;;;;;;7.37;5.28;;;4.20;99.90;;;;;;469385;252;27983;-76
2021/12/20 03:06:19;;;;;;;7.87;5.30;;;4.20;99.90;;;;;;475154;250;27929;-76
2021/12/20 03:08:20;;;;;;;7.40;5.55;;;4.20;99.90;;;;;;469400;253;27494;-76
2021/12/20 03:10:22;;;;;;;8.50;5.45;;;4.20;99.90;;;;;;475167;250;27440;-76
2021/12/20 03:12:25;;;;;;;7.55;4.97;;;4.10;99.90;;;;;;469428;253;27552;-76
2021/12/20 03:14:29;;;;;;;7.45;4.97;;;4.20;99.90;;;;;;475002;250;27389;-76
2021/12/20 03:16:25;;;;;;;7.43;5.32;;;4.20;99.90;;;;;;469109;253;27479;-76
2021/12/20 03:18:26;;;;;;;6.85;5.07;;;4.10;99.90;;;;;;475147;250;27412;-76
2021/12/20 03:20:27;;;;;;;6.62;5.80;;;4.10;99.90;;;;;;469451;252;27419;-77
2021/12/20 03:22:29;;;;;;;5.35;4.35;;;4.10;99.90;;;;;;475133;250;27499;-76
2021/12/20 03:24:30;;;;;;;6.55;5.05;;;4.10;99.90;;;;;;469424;252;27421;-75
2021/12/20 03:26:31;;;;;;;6.07;4.45;;;4.00;99.90;;;;;;475160;250;27924;-76
2021/12/20 03:28:32;;;;;;;5.78;5.03;;;4.10;99.90;;;;;;469415;253;27903;-76
2021/12/20 03:30:34;;;;;;;7.35;5.00;;;4.10;99.90;;;;;;475121;250;27927;-76
2021/12/20 03:32:35;;;;;;;6.45;4.57;;;4.20;99.90;;;;;;469433;252;28644;-76
2021/12/20 03:34:36;;;;;;;6.70;5.10;;;4.20;99.90;;;;;;475140;250;27385;-76
2021/12/20 03:36:37;;;;;;;6.70;4.85;;;4.10;99.90;;;;;;469440;252;27460;-76
2021/12/20 03:38:39;;;;;;;6.85;4.78;;;4.10;99.90;;;;;;475119;250;27504;-76
2021/12/20 03:40:40;;;;;;;6.00;4.75;;;4.10;99.90;;;;;;469406;253;27469;-76
2021/12/20 03:42:45;;;;;;;6.20;3.90;;;4.10;99.90;;;;;;475141;250;27491;-76
2021/12/20 03:44:46;;;;;;;6.22;5.37;;;4.10;99.90;;;;;;469385;253;28066;-76
2021/12/20 03:46:47;;;;;;;5.95;4.28;;;4.10;99.90;;;;;;475127;250;27953;-76
2021/12/20 03:48:48;;;;;;;8.13;5.60;;;4.20;99.90;;;;;;469437;252;28063;-75
2021/12/20 03:50:49;;;;;;;6.65;5.00;;;4.10;99.90;;;;;;475122;250;27507;-77
2021/12/20 03:52:51;;;;;;;7.12;5.20;;;4.10;99.90;;;;;;469413;252;27512;-76
2021/12/20 03:54:52;;;;;;;8.07;5.25;;;4.10;99.90;;;;;;475131;250;27421;-76
2021/12/20 03:56:53;;;;;;;7.00;5.37;;;4.10;99.90;;;;;;469442;253;27437;-76
2021/12/20 03:58:54;;;;;;;5.70;5.00;;;4.10;99.90;;;;;;475133;250;27437;-76
2021/12/20 04:00:56;;;;;;;5.78;4.82;;;4.10;99.90;;;;;;469401;253;27431;-76
2021/12/20 04:02:57;;;;;;;7.03;4.75;;;4.10;99.90;;;;;;475134;250;27447;-76
2021/12/20 04:04:58;;;;;;;5.93;4.70;;;4.10;99.90;;;;;;469431;253;27471;-76
2021/12/20 04:06:59;;;;;;;6.37;5.03;;;4.10;99.90;;;;;;475128;250;27444;-75
2021/12/20 04:09:01;;;;;;;5.80;4.65;;;4.10;99.90;;;;;;469412;252;27585;-76
2021/12/20 04:11:02;;;;;;;5.78;4.60;;;4.10;99.90;;;;;;475125;250;27871;-76
2021/12/20 04:13:03;;;;;;;5.47;4.80;;;4.10;99.90;;;;;;469398;252;28059;-76
2021/12/20 04:15:05;;;;;;;5.90;4.87;;;4.10;99.90;;;;;;475149;250;27904;-76
2021/12/20 04:17:06;;;;;;;5.35;4.40;;;4.10;99.90;;;;;;469424;252;27898;-77
2021/12/20 04:19:07;;;;;;;6.60;4.85;;;4.10;99.90;;;;;;475129;250;27428;-75
2021/12/20 04:21:10;;;;;;;6.70;4.90;;;4.10;99.90;;;;;;469415;252;27488;-76
2021/12/20 04:23:09;;;;;;;4.85;4.35;;;4.10;99.90;;;;;;475026;250;27428;-76
2021/12/20 04:25:11;;;;;;;4.72;4.12;;;4.20;99.90;;;;;;469462;253;27443;-76
2021/12/20 04:27:12;;;;;;;6.55;4.72;;;4.20;99.90;;;;;;475198;250;27400;-76
2021/12/20 04:29:13;;;;;;;6.07;5.25;;;4.20;99.90;;;;;;469474;252;27530;-77
2021/12/20 04:31:14;;;;;;;5.05;4.55;;;4.20;99.90;;;;;;475205;250;27404;-76
2021/12/20 04:33:16;;;;;;;7.03;4.32;;;4.20;99.90;;;;;;469454;252;27553;-76
2021/12/20 04:35:17;;;;;;;6.47;4.53;;;4.20;99.90;;;;;;475143;250;27511;-75
2021/12/20 04:37:18;;;;;;;4.95;4.22;;;4.20;99.90;;;;;;469425;252;27956;-76
2021/12/20 04:39:23;;;;;;;7.75;5.35;;;4.20;99.90;;;;;;475146;250;27944;-76
2021/12/20 04:41:21;;;;;;;7.75;5.65;;;4.10;99.90;;;;;;469163;253;27858;-76
2021/12/20 04:43:22;;;;;;;6.00;4.75;;;4.10;99.90;;;;;;475155;250;29186;-76
2021/12/20 04:45:23;;;;;;;6.80;5.22;;;4.10;99.90;;;;;;469397;252;27565;-76
2021/12/20 04:47:24;;;;;;;6.03;4.32;;;4.10;99.90;;;;;;475154;250;27405;-76
2021/12/20 04:49:26;;;;;;;7.03;5.40;;;4.10;99.90;;;;;;469410;253;27466;-76
2021/12/20 04:51:27;;;;;;;5.78;4.80;;;4.10;99.90;;;;;;475119;250;27393;-76
2021/12/20 04:53:28;;;;;;;6.43;4.93;;;4.20;99.90;;;;;;469427;253;27464;-77
2021/12/20 04:55:29;;;;;;;6.18;4.70;;;4.20;99.90;;;;;;475105;250;27440;-75
2021/12/20 04:57:31;;;;;;;6.45;4.85;;;4.20;99.90;;;;;;469424;252;27575;-76
2021/12/20 04:59:32;;;;;;;5.93;4.70;;;4.20;99.90;;;;;;475167;250;27445;-76
2021/12/20 05:01:33;;;;;;;6.32;4.43;;;4.20;99.90;;;;;;469437;252;27424;-77
2021/12/20 05:03:34;;;;;;;7.95;4.28;;;4.20;99.90;;;;;;475168;250;27438;-76
2021/12/20 05:05:36;;;;;;;5.50;4.70;;;4.20;99.90;;;;;;469432;252;27907;-77
2021/12/20 05:07:38;;;;;;;7.05;4.95;;;4.20;99.90;;;;;;475169;250;27888;-76
2021/12/20 05:09:40;;;;;;;6.50;4.70;;;4.30;99.90;;;;;;469363;252;28026;-76
2021/12/20 05:11:47;;;;;;;9.77;4.43;;;4.20;99.90;;;;;;475074;250;27444;-76
2021/12/20 05:13:41;;;;;;;6.05;4.12;;;4.20;99.90;;;;;;468967;253;27548;-76
2021/12/20 05:15:42;;;;;;;5.80;4.00;;;4.20;99.90;;;;;;475165;250;27397;-76
2021/12/20 05:17:43;;;;;;;7.82;4.50;;;4.20;99.90;;;;;;469415;252;27452;-76
2021/12/20 05:19:44;;;;;;;5.12;4.10;;;4.20;99.90;;;;;;475139;250;27424;-75
2021/12/20 05:21:46;;;;;;;5.78;4.40;;;4.20;99.90;;;;;;469403;253;27432;-75
2021/12/20 05:23:47;;;;;;;4.95;4.03;;;4.20;99.90;;;;;;475140;250;27460;-75
2021/12/20 05:25:48;;;;;;;6.57;4.60;;;4.20;99.90;;;;;;469443;252;27502;-76
2021/12/20 05:27:49;;;;;;;4.37;3.95;;;4.20;99.90;;;;;;475136;250;27460;-75
2021/12/20 05:29:51;;;;;;;4.53;3.87;;;4.20;99.90;;;;;;469455;252;27475;-77
2021/12/20 05:31:52;;;;;;;4.03;3.62;;;4.20;99.90;;;;;;475158;250;28007;-76
2021/12/20 05:33:53;;;;;;;5.50;3.97;;;4.20;99.90;;;;;;469474;252;27963;-76
2021/12/20 05:35:54;;;;;;;5.65;4.03;;;4.20;99.90;;;;;;475186;250;27871;-76
2021/12/20 05:37:57;;;;;;;3.90;3.30;;;4.20;99.90;;;;;;469465;253;28027;-75
2021/12/20 05:39:57;;;;;;;4.22;3.83;;;4.10;99.90;;;;;;475116;250;27467;-75
2021/12/20 05:41:58;;;;;;;4.20;3.72;;;4.10;99.90;;;;;;469447;252;27508;-76
2021/12/20 05:43:59;;;;;;;4.00;3.60;;;4.10;99.90;;;;;;475173;250;27516;-76
2021/12/20 05:46:01;;;;;;;4.12;3.42;;;4.00;99.90;;;;;;469404;252;27507;-76
2021/12/20 05:48:02;;;;;;;3.55;3.25;;;4.00;99.90;;;;;;475137;250;27477;-76
2021/12/20 05:50:03;;;;;;;4.78;3.97;;;4.00;99.90;;;;;;469434;252;27836;-76
2021/12/20 05:52:04;;;;;;;5.30;3.87;;;4.00;99.90;;;;;;475085;250;27393;-76
2021/12/20 05:54:06;;;;;;;3.83;3.50;;;4.00;99.90;;;;;;469392;252;27602;-76
2021/12/20 05:56:07;;;;;;;5.32;4.35;;;4.00;99.90;;;;;;480054;239;27978;-75
2021/12/20 05:58:08;;;;;;;5.60;4.10;;;4.00;99.90;;;;;;481542;245;28141;-76
2021/12/20 06:00:12;;;;;;;4.25;3.62;;;4.10;99.90;;;;;;481566;247;28003;-75
2021/12/20 06:02:11;;;;;;;3.50;3.20;;;4.10;99.90;;;;;;481372;247;27998;-76
2021/12/20 06:04:12;;;;;;;4.78;3.90;;;4.10;99.90;;;;;;481513;247;27545;-76
2021/12/20 06:06:14;;;;;;;6.82;4.30;;;4.00;99.90;;;;;;481568;247;27511;-76
2021/12/20 06:08:14;;;;;;;4.97;3.60;;;4.00;99.90;;;;;;481488;247;27525;-75
2021/12/20 06:10:16;;;;;;;4.50;3.70;;;4.00;99.90;;;;;;481560;247;27559;-77
2021/12/20 06:12:17;;;;;;;4.62;4.15;;;4.00;99.90;;;;;;481572;247;27485;-76
2021/12/20 06:14:18;;;;;;;5.55;4.05;;;3.90;99.90;;;;;;481533;247;27635;-76
2021/12/20 06:16:19;;;;;;;3.90;3.50;;;3.90;99.90;;;;;;481578;247;27572;-75
2021/12/20 06:18:21;;;;;;;4.47;4.07;;;3.90;99.90;;;;;;481546;247;27475;-76
2021/12/20 06:20:22;;;;;;;3.87;3.25;;;3.90;99.90;;;;;;481577;247;27524;-76
2021/12/20 06:22:23;;;;;;;5.65;3.55;;;3.90;99.90;;;;;;481551;247;28045;-76
2021/12/20 06:24:24;;;;;;;4.90;3.70;;;3.90;99.90;;;;;;481534;245;28092;-76
2021/12/20 06:26:26;;;;;;;5.07;3.25;;;3.90;99.90;;;;;;481550;247;27998;-76
2021/12/20 06:28:28;;;;;;;4.30;3.53;;;3.90;99.90;;;;;;481585;247;27984;-76
2021/12/20 06:30:28;;;;;;;4.72;3.83;;;3.90;99.90;;;;;;481531;245;27652;-76
2021/12/20 06:32:29;;;;;;;4.50;3.97;;;3.90;99.90;;;;;;481527;247;27484;-76
2021/12/20 06:34:31;;;;;;;5.45;4.05;;;3.90;99.90;;;;;;481509;247;27509;-76
2021/12/20 06:36:32;;;;;;;4.20;3.58;;;3.90;99.90;;;;;;481572;247;27541;-76
2021/12/20 06:38:35;;;;;;;7.40;4.90;;;3.90;99.90;;;;;;481566;247;27504;-76
2021/12/20 06:40:34;;;;;;;3.75;3.25;;;3.80;99.90;;;;;;481460;247;27534;-76
2021/12/20 06:42:38;;;;;;;4.47;4.07;;;3.90;99.90;;;;;;481564;247;27585;-76
2021/12/20 06:44:37;;;;;;;5.93;4.43;;;3.90;99.90;;;;;;481446;247;27531;-75
2021/12/20 06:46:40;;;;;;;4.25;3.80;;;3.90;99.90;;;;;;481572;247;27563;-76
2021/12/20 06:48:39;;;;;;;10.77;4.53;;;3.90;99.90;;;;;;481433;247;27635;-77
2021/12/20 06:50:41;;;;;;;5.25;4.10;;;3.90;99.90;;;;;;481537;247;27998;-75
2021/12/20 06:52:42;;;;;;;4.70;4.10;;;3.80;99.90;;;;;;481575;247;27955;-77
2021/12/20 06:54:43;;;;;;;6.18;3.50;;;3.90;99.90;;;;;;481528;247;27995;-77
2021/12/20 06:56:44;;;;;;;5.65;3.87;;;3.90;99.90;;;;;;481381;246;27545;-75
2021/12/20 06:58:46;;;;;;;4.30;3.90;;;3.90;99.90;;;;;;481234;240;27434;-76
2021/12/20 07:00:47;;;;;;;5.15;4.07;;;3.90;99.90;;;;;;482365;244;27445;-76
2021/12/20 07:02:48;;;;;;;5.05;3.97;;;4.00;99.90;;;;;;482372;244;27470;-76
2021/12/20 07:04:49;;;;;;;4.62;4.20;;;4.00;99.90;;;;;;482394;244;27429;-76
2021/12/20 07:06:52;;;;;;;5.45;3.80;;;4.00;99.90;;;;;;482382;244;27527;-76
2021/12/20 07:08:52;;;;;;;4.18;3.53;;;4.00;99.90;;;;;;482349;246;27391;-76
2021/12/20 07:10:53;;;;;;;7.85;4.43;;;3.90;99.90;;;;;;482360;244;27446;-76
2021/12/20 07:12:55;;;;;;;6.10;4.90;;;3.90;99.90;;;;;;482382;244;27401;-76
2021/12/20 07:14:56;;;;;;;4.93;3.72;;;3.90;99.90;;;;;;482383;244;27430;-76
2021/12/20 07:16:57;;;;;;;4.82;4.03;;;3.90;99.90;;;;;;482381;245;27441;-75
2021/12/20 07:18:58;;;;;;;4.75;3.78;;;3.90;99.90;;;;;;482397;244;28012;-76
2021/12/20 07:20:59;;;;;;;6.00;4.15;;;3.80;99.90;;;;;;482404;244;27925;-76
2021/12/20 07:23:01;;;;;;;4.90;3.72;;;3.80;99.90;;;;;;482281;244;27904;-76
2021/12/20 07:25:02;;;;;;;4.78;3.83;;;3.80;99.90;;;;;;482428;244;27930;-76
2021/12/20 07:27:03;;;;;;;5.40;3.80;;;3.80;99.90;;;;;;482395;244;27445;-76
2021/12/20 07:29:05;;;;;;;4.70;3.30;;;3.90;99.90;;;;;;482376;244;27397;-77
2021/12/20 07:31:06;;;;;;;5.65;3.67;;;3.90;99.90;;;;;;482374;245;27430;-76
2021/12/20 07:33:08;;;;;;;5.50;3.90;;;3.90;99.90;;;;;;482254;244;27410;-76
2021/12/20 07:35:08;;;;;;;3.60;3.30;;;3.90;99.90;;;;;;481688;244;27556;-77
2021/12/20 07:37:09;;;;;;;5.40;3.80;;;3.90;99.90;;;;;;482237;244;27525;-76
2021/12/20 07:39:11;;;;;;;5.53;3.53;;;3.90;99.90;;;;;;482276;244;27407;-76
2021/12/20 07:41:12;;;;;;;5.45;4.25;;;3.90;99.90;;;;;;482304;244;27461;-77
2021/12/20 07:43:14;;;;;;;5.05;3.42;;;3.90;99.90;;;;;;482407;244;27449;-76
2021/12/20 07:45:14;;;;;;;7.72;3.97;;;3.80;99.90;;;;;;482292;245;27872;-76
2021/12/20 07:47:16;;;;;;;4.90;3.58;;;3.80;99.90;;;;;;482308;244;27924;-76
2021/12/20 07:49:17;;;;;;;4.47;3.53;;;3.80;99.90;;;;;;482393;245;27866;-76
2021/12/20 07:51:18;;;;;;;3.58;3.28;;;3.90;99.90;;;;;;482322;244;27899;-78
2021/12/20 07:53:19;;;;;;;3.95;3.58;;;3.90;99.90;;;;;;482407;244;27437;-76
2021/12/20 07:55:21;;;;;;;4.90;4.15;;;3.90;99.90;;;;;;482389;245;27410;-76
2021/12/20 07:57:22;;;;;;;4.80;3.70;;;3.90;99.90;;;;;;482350;245;27488;-76
2021/12/20 07:59:23;;;;;;;3.80;3.50;;;4.00;99.90;;;;;;482346;245;27452;-76
2021/12/20 08:01:26;;;;;;;4.93;3.30;;;4.00;99.90;;;;;;482360;244;27477;-76
2021/12/20 08:03:26;;;;;;;9.40;4.37;;;4.00;99.90;;;;;;482330;246;27555;-76
2021/12/20 08:05:27;;;;;;;5.40;4.28;;;3.90;99.90;;;;;;482391;244;27401;-76
2021/12/20 08:07:28;;;;;;;4.82;4.03;;;3.90;99.90;;;;;;482367;244;27445;-76
2021/12/20 08:09:30;;;;;;;4.62;3.75;;;3.90;99.90;;;;;;482405;244;27402;-76
2021/12/20 08:11:31;;;;;;;5.62;4.12;;;3.90;99.90;;;;;;482334;244;27449;-76
2021/12/20 08:13:32;;;;;;;6.40;3.75;;;3.90;99.90;;;;;;482352;244;27909;-75
2021/12/20 08:15:33;;;;;;;3.78;3.40;;;4.00;99.90;;;;;;482362;245;27913;-77
2021/12/20 08:17:34;;;;;;;6.43;4.00;;;4.00;99.90;;;;;;482377;244;28010;-76
2021/12/20 08:19:36;;;;;;;4.10;3.75;;;4.00;99.90;;;;;;482352;244;27908;-76
2021/12/20 08:21:37;;;;;;;5.55;4.00;;;4.10;99.90;;;;;;482393;244;27394;-77
2021/12/20 08:23:40;;;;;;;7.65;4.32;;;4.10;99.90;;;;;;482318;245;27508;-76
2021/12/20 08:25:43;;;;;;;6.68;4.72;;;4.10;99.90;;;;;;482279;246;27406;-76
2021/12/20 08:27:44;;;;;;;8.13;5.25;;;4.10;99.90;;;;;;482389;245;27417;-76
2021/12/20 08:29:45;;;;;;;11.20;5.57;;;4.10;99.90;;;;;;482378;244;27450;-76
2021/12/20 08:31:46;;;;;;;7.85;5.28;;;4.10;99.90;;;;;;482404;244;27446;-76
2021/12/20 08:33:47;;;;;;;9.15;5.55;;;4.10;99.90;;;;;;482379;244;27486;-76
2021/12/20 08:35:49;;;;;;;7.90;4.47;;;4.10;99.90;;;;;;482298;244;27945;-76
2021/12/20 08:37:53;;;;;;;6.22;4.07;;;4.20;99.90;;;;;;482388;244;27947;-76
2021/12/20 08:39:51;;;;;;;6.75;3.90;;;4.20;99.90;;;;;;482191;246;27927;-77
2021/12/20 08:41:53;;;;;;;6.28;3.75;;;4.20;99.90;;;;;;482396;244;27560;-76
2021/12/20 08:43:54;;;;;;;9.80;4.32;;;4.10;99.90;;;;;;482383;245;27449;-76
2021/12/20 08:45:55;;;;;;;5.68;4.18;;;4.20;99.90;;;;;;482370;244;27461;-77
2021/12/20 08:47:56;;;;;;;8.55;4.00;;;4.20;99.90;;;;;;482289;244;27399;-77
2021/12/20 08:49:57;;;;;;;8.60;3.87;;;4.20;99.90;;;;;;482390;245;27425;-77
2021/12/20 08:52:00;;;;;;;10.48;4.45;;;4.20;99.90;;;;;;482401;245;27452;-76
2021/12/20 08:54:00;;;;;;;9.18;4.15;;;4.30;99.90;;;;;;482347;245;27489;-75
2021/12/20 08:56:01;;;;;;;11.43;3.92;;;4.30;99.90;;;;;;482367;245;27514;-76
2021/12/20 08:58:03;;;;;;;7.90;3.83;;;4.30;99.90;;;;;;482329;244;27529;-76
2021/12/20 09:00:04;;;;;;;11.82;4.47;;;4.20;99.90;;;;;;482325;241;28005;-76
2021/12/20 09:02:07;;;;;;;6.35;3.85;;;4.20;99.90;;;;;;482341;244;27966;-77
2021/12/20 09:04:06;;;;;;;10.07;3.92;;;4.20;99.90;;;;;;482236;246;27928;-76
2021/12/20 09:06:08;;;;;;;9.60;4.50;;;4.10;99.90;;;;;;482418;244;27545;-77
2021/12/20 09:08:10;;;;;;;12.25;4.40;;;4.20;99.90;;;;;;482409;244;27456;-76
2021/12/20 09:10:10;;;;;;;9.90;4.22;;;4.30;99.90;;;;;;482319;244;27454;-76
2021/12/20 09:12:11;;;;;;;15.02;4.43;;;4.30;99.90;;;;;;482428;244;27468;-76
2021/12/20 09:14:13;;;;;;;9.52;3.90;;;4.30;99.90;;;;;;482340;244;27425;-77
2021/12/20 09:16:14;;;;;;;9.98;3.55;;;4.30;99.90;;;;;;482408;244;27532;-76
2021/12/20 09:18:16;;;;;;;7.68;3.92;;;4.30;99.90;;;;;;482416;244;27405;-76
2021/12/20 09:20:17;;;;;;;7.53;3.85;;;4.40;99.90;;;;;;482286;246;27515;-76
2021/12/20 09:22:18;;;;;;;6.12;4.60;;;4.40;99.90;;;;;;482380;244;27912;-76
2021/12/20 09:24:19;;;;;;;7.03;3.80;;;4.40;99.90;;;;;;482375;244;27856;-76
2021/12/20 09:26:20;;;;;;;5.07;3.35;;;4.40;99.90;;;;;;482278;244;27907;-76
2021/12/20 09:28:21;;;;;;;7.93;3.58;;;4.40;99.90;;;;;;482392;244;27465;-76
2021/12/20 09:30:23;;;;;;;5.78;3.97;;;4.40;99.90;;;;;;482393;245;27408;-76
2021/12/20 09:32:24;;;;;;;8.18;3.62;;;4.50;99.90;;;;;;482360;244;27524;-76
2021/12/20 09:34:25;;;;;;;8.90;3.95;;;4.50;99.90;;;;;;482394;244;27401;-76
2021/12/20 09:36:29;;;;;;;10.63;3.65;;;4.50;99.90;;;;;;482365;244;27551;-76
2021/12/20 09:38:30;;;;;;;9.02;4.37;;;4.40;99.90;;;;;;482141;246;27521;-76
2021/12/20 09:40:36;;;;;;;8.50;3.50;;;4.50;99.90;;;;;;482311;244;27405;-76
2021/12/20 09:42:33;;;;;;;6.05;3.60;;;4.50;99.90;;;;;;482107;246;27541;-76
2021/12/20 09:44:34;;;;;;;9.02;4.00;;;4.60;99.90;;;;;;482372;244;27923;-76
2021/12/20 09:46:36;;;;;;;8.40;3.75;;;4.60;99.90;;;;;;482397;244;28012;-76
2021/12/20 09:48:37;;;;;;;9.15;4.00;;;4.60;99.90;;;;;;482376;245;27860;-76
2021/12/20 09:50:38;;;;;;;8.45;3.75;;;4.60;99.90;;;;;;482385;244;27441;-76
2021/12/20 09:52:40;;;;;;;8.75;3.75;;;4.60;99.90;;;;;;482399;244;27401;-76
2021/12/20 09:54:41;;;;;;;8.18;4.25;;;4.60;99.90;;;;;;482357;244;27492;-76
2021/12/20 09:56:42;;;;;;;7.75;4.00;;;4.60;99.90;;;;;;482414;244;27786;-75
2021/12/20 09:58:43;;;;;;;10.63;4.68;;;4.70;99.90;;;;;;482371;244;27449;-76
2021/12/20 10:00:45;;;;;;;10.85;4.68;;;4.60;99.90;;;;;;482349;244;27472;-76
2021/12/20 10:02:46;;;;;;;6.05;3.62;;;4.60;99.90;;;;;;482318;244;27921;-76
2021/12/20 10:04:47;;;;;;;8.52;3.87;;;4.70;99.90;;;;;;482328;244;28006;-76
2021/12/20 10:06:48;;;;;;;9.85;3.65;;;4.70;99.90;;;;;;482405;244;28000;-76
2021/12/20 10:08:52;;;;;;;7.30;3.83;;;4.80;99.90;;;;;;482391;244;27481;-76
2021/12/20 10:10:51;;;;;;;7.35;3.75;;;4.80;99.90;;;;;;482186;246;27445;-76
2021/12/20 10:12:52;;;;;;;8.73;3.83;;;4.70;99.90;;;;;;482381;244;27393;-76
2021/12/20 10:14:53;;;;;;;11.98;4.78;;;4.70;99.90;;;;;;482328;244;27576;-76
2021/12/20 10:16:55;;;;;;;8.10;4.25;;;4.80;99.90;;;;;;482339;244;27757;-76
2021/12/20 10:18:56;;;;;;;10.85;4.32;;;4.90;99.90;;;;;;482404;245;27415;-77
2021/12/20 10:20:57;;;;;;;7.90;3.78;;;4.80;99.90;;;;;;482332;244;27921;-76
2021/12/20 10:22:58;;;;;;;11.20;4.30;;;4.80;99.90;;;;;;482367;244;27861;-76
2021/12/20 10:25:00;;;;;;;11.23;4.40;;;4.70;99.90;;;;;;482372;244;27545;-76
2021/12/20 10:27:01;;;;;;;7.10;3.97;;;4.60;99.90;;;;;;482272;244;27433;-76
2021/12/20 10:29:02;;;;;;;11.50;3.90;;;4.70;99.90;;;;;;482373;244;27442;-76
2021/12/20 10:31:03;;;;;;;13.00;3.47;;;4.60;99.90;;;;;;482381;244;27472;-76
2021/12/20 10:33:05;;;;;;;7.25;3.65;;;4.60;99.90;;;;;;482320;244;27476;-76
2021/12/20 10:35:06;;;;;;;5.60;3.50;;;4.60;99.90;;;;;;482411;244;27394;-76
2021/12/20 10:37:07;;;;;;;8.98;3.67;;;4.60;99.90;;;;;;482363;244;28070;-76
2021/12/20 10:39:09;;;;;;;8.70;3.40;;;4.60;99.90;;;;;;482294;244;27995;-76
2021/12/20 10:41:10;;;;;;;6.25;3.15;;;4.60;99.90;;;;;;482384;244;27908;-75
2021/12/20 10:43:14;;;;;;;9.85;3.50;;;4.50;99.90;;;;;;482323;244;27416;-76
2021/12/20 10:45:13;;;;;;;7.43;3.42;;;4.60;99.90;;;;;;482238;246;27397;-76
2021/12/20 10:47:13;;;;;;;12.23;3.35;;;4.60;99.90;;;;;;482365;245;27464;-76
2021/12/20 10:49:15;;;;;;;8.43;3.83;;;4.60;99.90;;;;;;482283;244;27397;-76